createdAt,value
2018-09-10T00:00:15.713Z,74.61
2018-09-10T00:02:45.214Z,75.21
2018-09-10T00:05:14.142Z,74.89
2018-09-10T00:07:43.251Z,74.42
2018-09-10T00:10:13.758Z,74.73
2018-09-10T00:12:43.815Z,74.63
2018-09-10T00:15:12.975Z,75.20
2018-09-10T00:17:42.256Z,74.75
2018-09-10T00:20:11.248Z,74.57
2018-09-10T00:22:40.333Z,74.88
2018-09-10T00:25:09.674Z,74.85
2018-09-10T00:27:38.689Z,74.71
2018-09-10T00:30:07.813Z,74.80
2018-09-10T00:32:36.968Z,74.17
2018-09-10T00:35:06.904Z,74.07
2018-09-10T00:37:35.857Z,74.98
2018-09-10T00:40:04.862Z,75.04
2018-09-10T00:42:34.802Z,74.68
2018-09-10T00:45:03.889Z,75.11
2018-09-10T00:47:33.134Z,74.57
2018-09-10T00:50:02.201Z,74.53
2018-09-10T00:52:31.213Z,74.09
2018-09-10T00:55:02.246Z,74.18
2018-09-10T00:57:31.242Z,74.01
2018-09-10T01:00:00.592Z,74.39
2018-09-10T01:02:30.563Z,74.92
2018-09-10T01:04:59.488Z,75.13
2018-09-10T01:07:28.755Z,73.98
2018-09-10T01:09:57.710Z,74.94
2018-09-10T01:12:26.711Z,74.32
2018-09-10T01:14:56.031Z,75.03
2018-09-10T01:17:26.140Z,75.16
2018-09-10T01:19:56.046Z,75.70
2018-09-10T01:22:25.200Z,75.07
2018-09-10T01:24:54.106Z,75.13
2018-09-10T01:27:23.088Z,75.64
2018-09-10T01:29:52.028Z,75.93
2018-09-10T01:32:21.150Z,75.59
2018-09-10T01:34:55.771Z,76.11
2018-09-10T01:37:24.749Z,76.76
2018-09-10T01:39:53.736Z,76.85
2018-09-10T01:42:22.705Z,76.55
2018-09-10T01:44:51.699Z,76.51
2018-09-10T01:47:21.658Z,77.32
2018-09-10T01:49:51.654Z,78.07
2018-09-10T01:52:20.799Z,77.88
2018-09-10T01:54:49.751Z,77.85
2018-09-10T01:57:18.760Z,78.48
2018-09-10T01:59:47.753Z,77.92
2018-09-10T02:02:16.912Z,78.37
2018-09-10T02:04:45.885Z,78.32
2018-09-10T02:07:15.825Z,78.57
2018-09-10T02:09:44.824Z,78.88
2018-09-10T02:12:19.130Z,79.03
2018-09-10T02:14:48.359Z,79.17
2018-09-10T02:17:17.896Z,79.41
2018-09-10T02:19:46.889Z,79.59
2018-09-10T02:22:16.200Z,79.29
2018-09-10T02:24:45.119Z,80.06
2018-09-10T02:27:15.052Z,79.79
2018-09-10T02:29:44.055Z,79.72
2018-09-10T02:32:13.024Z,79.96
2018-09-10T02:34:42.000Z,80.03
2018-09-10T02:37:10.981Z,79.26
2018-09-10T02:39:40.905Z,80.09
2018-09-10T02:42:11.890Z,80.13
2018-09-10T02:44:40.859Z,80.28
2018-09-10T02:47:10.301Z,80.08
2018-09-10T02:49:39.279Z,79.78
2018-09-10T02:52:08.246Z,80.03
2018-09-10T02:54:37.394Z,79.63
2018-09-10T02:57:06.522Z,79.28
2018-09-10T02:59:36.712Z,79.16
2018-09-10T03:02:05.693Z,79.61
2018-09-10T03:04:38.308Z,79.46
2018-09-10T03:07:08.259Z,79.46
2018-09-10T03:09:38.209Z,80.46
2018-09-10T03:12:07.448Z,80.75
2018-09-10T03:14:36.451Z,80.48
2018-09-10T03:17:05.476Z,80.60
2018-09-10T03:19:34.564Z,80.28
2018-09-10T03:22:03.568Z,79.61
2018-09-10T03:24:33.563Z,80.31
2018-09-10T03:27:03.609Z,80.23
2018-09-10T03:29:32.548Z,80.53
2018-09-10T03:32:01.779Z,80.63
2018-09-10T03:34:31.750Z,79.99
2018-09-10T03:37:01.720Z,79.96
2018-09-10T03:39:30.956Z,80.06
2018-09-10T03:42:00.983Z,80.60
2018-09-10T03:44:29.883Z,80.82
2018-09-10T03:47:00.870Z,80.53
2018-09-10T03:49:29.884Z,80.89
2018-09-10T03:51:58.806Z,81.30
2018-09-10T03:54:28.803Z,81.03
2018-09-10T03:56:57.944Z,80.99
2018-09-10T03:59:26.923Z,81.39
2018-09-10T04:01:56.929Z,81.43
2018-09-10T04:04:25.800Z,81.00
2018-09-10T04:06:54.744Z,80.83
2018-09-10T04:09:24.706Z,81.05
2018-09-10T04:11:54.139Z,80.99
2018-09-10T04:14:23.035Z,80.71
2018-09-10T04:16:52.036Z,81.93
2018-09-10T04:19:21.977Z,82.37
2018-09-10T04:21:51.118Z,81.72
2018-09-10T04:24:21.060Z,82.02
2018-09-10T04:26:50.097Z,82.00
2018-09-10T04:29:19.409Z,82.32
2018-09-10T04:31:49.712Z,81.93
2018-09-10T04:34:18.641Z,81.58
2018-09-10T04:36:47.561Z,82.35
2018-09-10T04:39:16.551Z,82.51
2018-09-10T04:41:46.508Z,82.43
2018-09-10T04:44:15.496Z,82.00
2018-09-10T04:46:44.482Z,81.94
2018-09-10T04:49:13.463Z,82.24
2018-09-10T04:51:42.452Z,82.91
2018-09-10T04:54:11.545Z,82.89
2018-09-10T04:56:41.446Z,83.06
2018-09-10T04:59:10.357Z,82.75
2018-09-10T05:01:39.379Z,82.60
2018-09-10T05:04:09.388Z,83.70
2018-09-10T05:06:38.335Z,82.74
2018-09-10T05:09:08.949Z,83.06
2018-09-10T05:11:38.068Z,83.14
2018-09-10T05:14:07.139Z,83.69
2018-09-10T05:16:36.104Z,83.49
2018-09-10T05:19:06.077Z,83.08
2018-09-10T05:21:35.109Z,83.96
2018-09-10T05:24:05.118Z,83.54
2018-09-10T05:26:34.141Z,83.75
2018-09-10T05:29:04.121Z,83.49
2018-09-10T05:31:33.103Z,83.82
2018-09-10T05:34:03.013Z,84.26
2018-09-10T05:36:32.012Z,84.67
2018-09-10T05:39:00.983Z,84.57
2018-09-10T05:41:30.999Z,84.82
2018-09-10T05:43:59.908Z,84.30
2018-09-10T05:46:28.959Z,83.70
2018-09-10T05:48:57.910Z,84.76
2018-09-10T05:51:27.257Z,84.56
2018-09-10T05:53:56.202Z,84.47
2018-09-10T05:56:25.257Z,84.54
2018-09-10T05:58:55.622Z,84.62
2018-09-10T06:01:24.605Z,85.51
2018-09-10T06:03:53.620Z,86.39
2018-09-10T06:06:22.595Z,87.44
2018-09-10T06:08:52.549Z,87.64
2018-09-10T06:11:21.483Z,87.88
2018-09-10T06:13:50.549Z,87.68
2018-09-10T06:16:19.504Z,87.60
2018-09-10T06:18:48.585Z,87.89
2018-09-10T06:21:17.580Z,88.81
2018-09-10T06:23:46.568Z,88.70
2018-09-10T06:26:15.551Z,88.64
2018-09-10T06:28:44.622Z,88.91
2018-09-10T06:31:13.541Z,87.98
2018-09-10T06:33:42.552Z,88.34
2018-09-10T06:36:11.675Z,88.12
2018-09-10T06:38:40.826Z,88.99
2018-09-10T06:41:10.755Z,89.47
2018-09-10T06:43:39.760Z,88.78
2018-09-10T06:46:08.969Z,88.92
2018-09-10T06:48:37.950Z,88.53
2018-09-10T06:51:07.726Z,89.18
2018-09-10T06:53:36.792Z,88.81
2018-09-10T06:56:06.787Z,88.48
2018-09-10T06:58:36.372Z,88.35
2018-09-10T07:01:05.459Z,88.03
2018-09-10T07:03:34.685Z,87.99
2018-09-10T07:06:03.646Z,88.14
2018-09-10T07:08:32.671Z,88.00
2018-09-10T07:11:01.658Z,87.44
2018-09-10T07:13:30.642Z,87.78
2018-09-10T07:15:59.651Z,87.72
2018-09-10T07:18:28.625Z,88.36
2018-09-10T07:20:58.554Z,89.33
2018-09-10T07:23:27.645Z,89.57
2018-09-10T07:25:56.647Z,89.53
2018-09-10T07:28:25.705Z,89.64
2018-09-10T07:30:55.661Z,89.90
2018-09-10T07:33:24.598Z,90.29
2018-09-10T07:35:54.536Z,90.07
2018-09-10T07:38:25.578Z,90.11
2018-09-10T07:40:54.637Z,90.16
2018-09-10T07:43:23.667Z,89.17
2018-09-10T07:45:52.572Z,89.60
2018-09-10T07:48:22.562Z,89.90
2018-09-10T07:50:52.539Z,89.51
2018-09-10T07:53:21.492Z,89.22
2018-09-10T07:55:50.541Z,89.22
2018-09-10T07:58:19.446Z,89.18
2018-09-10T08:00:48.400Z,88.19
2018-09-10T08:03:19.226Z,88.79
2018-09-10T08:05:48.207Z,89.05
2018-09-10T08:08:17.207Z,88.56
2018-09-10T08:10:46.242Z,88.68
2018-09-10T08:13:15.289Z,88.58
2018-09-10T08:15:44.309Z,88.49
2018-09-10T08:18:14.321Z,88.40
2018-09-10T08:20:43.282Z,88.70
2018-09-10T08:23:12.295Z,88.28
2018-09-10T08:25:42.360Z,88.49
2018-09-10T08:28:12.410Z,88.57
2018-09-10T08:30:41.447Z,87.93
2018-09-10T08:33:10.422Z,88.32
2018-09-10T08:35:40.477Z,88.08
2018-09-10T08:38:09.418Z,88.38
2018-09-10T08:40:38.504Z,88.18
2018-09-10T08:43:07.667Z,88.41
2018-09-10T08:45:36.606Z,88.45
2018-09-10T08:48:05.718Z,88.13
2018-09-10T08:50:34.748Z,87.86
2018-09-10T08:53:03.673Z,87.35
2018-09-10T08:55:33.405Z,87.23
2018-09-10T08:58:02.298Z,86.82
2018-09-10T09:00:31.311Z,86.13
2018-09-10T09:03:00.248Z,86.64
2018-09-10T09:05:29.248Z,86.61
2018-09-10T09:07:59.333Z,86.02
2018-09-10T09:10:28.276Z,85.95
2018-09-10T09:12:57.294Z,85.75
2018-09-10T09:15:26.817Z,85.57
2018-09-10T09:17:55.813Z,84.68
2018-09-10T09:20:24.777Z,85.20
2018-09-10T09:22:53.766Z,84.90
2018-09-10T09:25:24.802Z,84.32
2018-09-10T09:27:55.725Z,83.46
2018-09-10T09:30:24.766Z,83.74
2018-09-10T09:32:53.755Z,83.27
2018-09-10T09:37:30.363Z,83.34
2018-09-10T09:40:05.864Z,82.92
2018-09-10T09:42:40.196Z,81.73
2018-09-10T09:45:14.401Z,81.06
2018-09-10T09:47:43.341Z,79.36
2018-09-10T09:50:14.357Z,79.10
2018-09-10T09:52:43.343Z,78.33
2018-09-10T09:55:12.280Z,77.27
2018-09-10T09:57:41.160Z,76.98
2018-09-10T10:00:16.712Z,77.16
2018-09-10T10:02:51.942Z,76.27
2018-09-10T10:05:22.048Z,76.83
2018-09-10T10:07:51.040Z,75.51
2018-09-10T10:10:21.750Z,75.33
2018-09-10T10:12:52.095Z,74.78
2018-09-10T10:15:21.609Z,74.80
2018-09-10T10:17:50.559Z,74.53
2018-09-10T10:20:19.521Z,74.98
2018-09-10T10:22:48.704Z,75.29
2018-09-10T10:25:18.620Z,75.18
2018-09-10T10:27:47.538Z,75.10
2018-09-10T10:30:16.498Z,75.03
2018-09-10T10:32:45.419Z,73.89
2018-09-10T10:35:15.425Z,72.49
2018-09-10T10:37:44.560Z,70.61
2018-09-10T10:40:13.541Z,71.05
2018-09-10T10:42:42.531Z,70.11
2018-09-10T10:45:11.580Z,69.68
2018-09-10T10:47:40.476Z,69.75
2018-09-10T10:50:10.604Z,69.84
2018-09-10T10:52:40.702Z,70.44
2018-09-10T10:55:09.670Z,70.53
2018-09-10T10:57:38.610Z,70.89
2018-09-10T11:00:07.722Z,70.25
2018-09-10T11:02:36.705Z,70.89
2018-09-10T11:05:06.233Z,71.07
2018-09-10T11:07:35.253Z,70.60
2018-09-10T11:10:04.482Z,70.38
2018-09-10T11:12:34.456Z,69.11
2018-09-10T11:15:04.399Z,68.50
2018-09-10T11:17:34.362Z,68.56
2018-09-10T11:20:03.343Z,69.06
2018-09-10T11:22:33.293Z,69.06
2018-09-10T11:25:02.256Z,68.95
2018-09-10T11:27:31.345Z,69.37
2018-09-10T11:30:00.231Z,67.87
2018-09-10T11:32:30.178Z,68.04
2018-09-10T11:34:59.178Z,67.19
2018-09-10T11:37:28.135Z,67.35
2018-09-10T11:39:58.219Z,66.61
2018-09-10T11:42:27.204Z,65.67
2018-09-10T11:44:57.189Z,65.62
2018-09-10T11:47:27.115Z,65.78
2018-09-10T11:49:58.092Z,65.89
2018-09-10T11:52:28.079Z,65.76
2018-09-10T11:54:57.088Z,66.05
2018-09-10T11:57:26.295Z,65.22
2018-09-10T11:59:55.343Z,65.48
2018-09-10T12:02:24.426Z,65.65
2018-09-10T12:04:53.791Z,66.00
2018-09-10T12:07:24.392Z,65.27
2018-09-10T12:09:53.926Z,65.07
2018-09-10T12:12:23.388Z,66.25
2018-09-10T12:14:54.168Z,65.65
2018-09-10T12:17:23.782Z,65.69
2018-09-10T12:19:53.529Z,65.52
2018-09-10T12:22:22.938Z,65.52
2018-09-10T12:24:53.099Z,65.83
2018-09-10T12:27:22.651Z,65.51
2018-09-10T12:29:52.447Z,65.64
2018-09-10T12:32:21.793Z,65.92
2018-09-10T12:34:51.312Z,64.97
2018-09-10T12:37:20.622Z,64.93
2018-09-10T12:39:49.890Z,65.31
2018-09-10T12:42:20.160Z,65.51
2018-09-10T12:44:49.602Z,65.39
2018-09-10T12:47:18.651Z,65.16
2018-09-10T12:49:47.632Z,65.26
2018-09-10T12:52:16.586Z,64.76
2018-09-10T12:54:46.587Z,64.43
2018-09-10T12:57:16.505Z,64.91
2018-09-10T12:59:45.701Z,64.63
2018-09-10T13:02:15.641Z,65.13
2018-09-10T13:04:45.597Z,64.85
2018-09-10T13:07:14.806Z,64.37
2018-09-10T13:09:43.717Z,64.73
2018-09-10T13:12:12.663Z,63.11
2018-09-10T13:14:41.645Z,63.45
2018-09-10T13:17:10.648Z,63.50
2018-09-10T13:19:39.701Z,62.90
2018-09-10T13:22:08.755Z,62.66
2018-09-10T13:24:38.802Z,62.37
2018-09-10T13:27:08.801Z,62.79
2018-09-10T13:29:37.846Z,63.11
2018-09-10T13:32:06.854Z,63.07
2018-09-10T13:34:35.944Z,62.35
2018-09-10T13:37:04.961Z,62.72
2018-09-10T13:39:34.937Z,62.41
2018-09-10T13:42:04.838Z,62.50
2018-09-10T13:44:33.827Z,62.75
2018-09-10T13:47:03.794Z,62.35
2018-09-10T13:49:32.747Z,62.91
2018-09-10T13:52:02.752Z,63.10
2018-09-10T13:54:32.736Z,63.07
2018-09-10T13:57:01.690Z,62.48
2018-09-10T13:59:30.665Z,62.57
2018-09-10T14:01:59.705Z,62.98
2018-09-10T14:04:28.618Z,63.05
2018-09-10T14:06:57.539Z,63.14
2018-09-10T14:09:26.556Z,62.89
2018-09-10T14:11:55.600Z,63.33
2018-09-10T14:14:25.535Z,63.30
2018-09-10T14:16:55.604Z,62.99
2018-09-10T14:19:25.572Z,62.41
2018-09-10T14:21:55.211Z,63.01
2018-09-10T14:24:25.450Z,62.69
2018-09-10T14:26:56.142Z,62.47
2018-09-10T14:29:25.501Z,62.85
2018-09-10T14:31:54.578Z,62.63
2018-09-10T14:34:23.564Z,62.45
2018-09-10T14:36:53.791Z,61.90
2018-09-10T14:39:22.767Z,61.58
2018-09-10T14:41:52.786Z,61.48
2018-09-10T14:44:22.690Z,60.92
2018-09-10T14:46:51.672Z,61.51
2018-09-10T14:49:20.721Z,62.13
2018-09-10T14:51:49.895Z,61.89
2018-09-10T14:54:19.893Z,61.66
2018-09-10T14:56:48.864Z,61.09
2018-09-10T14:59:17.907Z,60.01
2018-09-10T15:01:46.898Z,60.36
2018-09-10T15:04:15.860Z,60.95
2018-09-10T15:06:44.877Z,60.86
2018-09-10T15:09:13.864Z,60.77
2018-09-10T15:11:44.857Z,61.46
2018-09-10T15:14:13.814Z,60.61
2018-09-10T15:16:42.754Z,60.05
2018-09-10T15:19:12.810Z,59.88
2018-09-10T15:21:41.732Z,60.12
2018-09-10T15:24:10.763Z,60.37
2018-09-10T15:26:40.845Z,61.20
2018-09-10T15:29:09.864Z,61.01
2018-09-10T15:31:39.762Z,60.97
2018-09-10T15:34:08.748Z,60.72
2018-09-10T15:36:37.654Z,61.13
2018-09-10T15:39:08.373Z,60.72
2018-09-10T15:41:37.354Z,60.99
2018-09-10T15:44:06.473Z,60.86
2018-09-10T15:46:35.646Z,61.09
2018-09-10T15:49:05.698Z,60.96
2018-09-10T15:51:34.676Z,61.31
2018-09-10T15:54:04.611Z,61.67
2018-09-10T15:56:34.908Z,61.61
2018-09-10T15:59:03.868Z,61.49
2018-09-10T16:01:32.843Z,61.42
2018-09-10T16:04:01.868Z,61.33
2018-09-10T16:06:30.818Z,61.48
2018-09-10T16:08:59.956Z,61.27
2018-09-10T16:11:29.957Z,61.33
2018-09-10T16:13:58.940Z,62.26
2018-09-10T16:16:28.417Z,61.97
2018-09-10T16:18:58.389Z,61.94
2018-09-10T16:21:27.328Z,62.06
2018-09-10T16:23:56.227Z,61.56
2018-09-10T16:26:25.387Z,61.94
2018-09-10T16:28:55.457Z,61.80
2018-09-10T16:31:24.446Z,61.72
2018-09-10T16:33:54.444Z,61.79
2018-09-10T16:36:23.405Z,61.75
2018-09-10T16:38:53.540Z,61.72
2018-09-10T16:41:22.521Z,61.33
2018-09-10T16:43:51.765Z,61.76
2018-09-10T16:46:21.043Z,61.25
2018-09-10T16:48:51.165Z,61.16
2018-09-10T16:51:21.611Z,61.66
2018-09-10T16:53:50.887Z,61.42
2018-09-10T16:56:19.914Z,61.26
2018-09-10T16:58:48.923Z,61.45
2018-09-10T17:01:18.984Z,61.46
2018-09-10T17:03:48.006Z,61.63
2018-09-10T17:06:17.028Z,62.01
2018-09-10T17:08:46.124Z,62.11
2018-09-10T17:11:16.027Z,61.90
2018-09-10T17:13:45.966Z,61.51
2018-09-10T17:16:15.205Z,62.10
2018-09-10T17:18:44.106Z,61.71
2018-09-10T17:21:14.047Z,61.84
2018-09-10T17:23:44.107Z,62.69
2018-09-10T17:26:13.374Z,62.52
2018-09-10T17:28:42.791Z,62.25
2018-09-10T17:31:12.955Z,63.47
2018-09-10T17:33:42.112Z,64.47
2018-09-10T17:36:11.225Z,64.26
2018-09-10T17:38:40.565Z,64.73
2018-09-10T17:41:10.531Z,64.66
2018-09-10T17:43:40.617Z,65.01
2018-09-10T17:46:09.691Z,65.16
2018-09-10T17:48:38.636Z,65.57
2018-09-10T17:51:07.681Z,65.64
2018-09-10T17:53:36.701Z,66.23
2018-09-10T17:56:05.769Z,67.86
2018-09-10T17:58:36.796Z,67.96
2018-09-10T18:01:08.782Z,68.45
2018-09-10T18:03:38.716Z,68.75
2018-09-10T18:06:08.606Z,69.35
2018-09-10T18:08:38.541Z,69.47
2018-09-10T18:11:07.571Z,70.21
2018-09-10T18:13:36.557Z,70.49
2018-09-10T18:16:05.560Z,70.70
2018-09-10T18:18:34.537Z,71.15
2018-09-10T18:21:03.562Z,71.52
2018-09-10T18:23:32.628Z,72.00
2018-09-10T18:26:01.772Z,72.90
2018-09-10T18:28:31.766Z,72.62
2018-09-10T18:31:00.993Z,72.93
2018-09-10T18:33:30.021Z,72.88
2018-09-10T18:35:58.985Z,73.81
2018-09-10T18:38:28.146Z,74.04
2018-09-10T18:40:57.227Z,73.67
2018-09-10T18:43:26.163Z,74.73
2018-09-10T18:45:56.102Z,74.59
2018-09-10T18:48:26.029Z,74.92
2018-09-10T18:50:56.097Z,75.21
2018-09-10T18:53:26.136Z,75.75
2018-09-10T18:55:56.671Z,75.54
2018-09-10T18:58:26.242Z,76.89
2018-09-10T19:00:55.796Z,77.37
2018-09-10T19:03:25.804Z,76.46
2018-09-10T19:05:54.797Z,76.62
2018-09-10T19:08:23.929Z,76.85
2018-09-10T19:10:52.922Z,76.67
2018-09-10T19:13:21.986Z,77.67
2018-09-10T19:15:51.432Z,77.59
2018-09-10T19:18:20.465Z,78.39
2018-09-10T19:20:49.427Z,78.83
2018-09-10T19:23:18.405Z,79.90
2018-09-10T19:25:47.391Z,79.78
2018-09-10T19:28:17.698Z,78.77
2018-09-10T19:30:47.781Z,79.21
2018-09-10T19:33:17.841Z,79.06
2018-09-10T19:35:46.903Z,79.23
2018-09-10T19:38:15.972Z,79.12
2018-09-10T19:40:44.940Z,79.16
2018-09-10T19:43:15.007Z,79.98
2018-09-10T19:45:43.978Z,79.38
2018-09-10T19:48:14.304Z,79.77
2018-09-10T19:50:43.559Z,80.20
2018-09-10T19:53:12.447Z,79.61
2018-09-10T19:55:41.678Z,79.96
2018-09-10T19:58:10.647Z,80.58
2018-09-10T20:00:39.628Z,80.45
2018-09-10T20:03:09.433Z,80.89
2018-09-10T20:05:38.470Z,80.58
2018-09-10T20:08:07.443Z,80.99
2018-09-10T20:10:36.437Z,80.78
2018-09-10T20:13:05.421Z,80.99
2018-09-10T20:15:34.381Z,81.48
2018-09-10T20:18:04.411Z,81.25
2018-09-10T20:20:34.325Z,81.21
2018-09-10T20:23:03.401Z,82.07
2018-09-10T20:25:32.349Z,82.02
2018-09-10T20:28:02.354Z,82.03
2018-09-10T20:30:32.568Z,82.26
2018-09-10T20:33:02.520Z,82.27
2018-09-10T20:35:31.520Z,82.40
2018-09-10T20:38:00.462Z,82.72
2018-09-10T20:40:29.437Z,83.88
2018-09-10T20:42:58.569Z,83.82
2018-09-10T20:45:28.611Z,83.20
2018-09-10T20:47:57.558Z,83.50
2018-09-10T20:50:26.600Z,83.76
2018-09-10T20:52:55.660Z,83.86
2018-09-10T20:55:25.576Z,83.67
2018-09-10T20:57:54.570Z,83.96
2018-09-10T21:00:23.572Z,83.32
2018-09-10T21:02:52.553Z,83.46
2018-09-10T21:05:21.515Z,83.83
2018-09-10T21:07:50.820Z,84.28
2018-09-10T21:10:21.763Z,83.84
2018-09-10T21:12:50.911Z,83.86
2018-09-10T21:15:20.078Z,84.14
2018-09-10T21:17:49.063Z,83.57
2018-09-10T21:20:18.060Z,84.18
2018-09-10T21:22:47.283Z,84.38
2018-09-10T21:25:16.351Z,83.45
2018-09-10T21:27:45.506Z,82.91
2018-09-10T21:30:14.470Z,83.05
2018-09-10T21:32:43.437Z,82.97
2018-09-10T21:35:12.391Z,81.92
2018-09-10T21:37:42.718Z,81.88
2018-09-10T21:40:11.618Z,82.29
2018-09-10T21:42:40.575Z,81.85
2018-09-10T21:45:09.645Z,82.05
2018-09-10T21:47:38.603Z,81.98
2018-09-10T21:50:07.603Z,82.11
2018-09-10T21:52:36.601Z,82.06
2018-09-10T21:55:06.502Z,82.35
2018-09-10T21:57:36.505Z,82.99
2018-09-10T22:00:06.329Z,84.23
2018-09-10T22:02:36.378Z,84.35
2018-09-10T22:05:05.412Z,85.08
2018-09-10T22:07:34.351Z,85.90
2018-09-10T22:10:04.274Z,85.89
2018-09-10T22:12:33.253Z,85.37
2018-09-10T22:15:02.301Z,85.66
2018-09-10T22:17:31.256Z,85.82
2018-09-10T22:20:00.223Z,85.90
2018-09-10T22:22:29.174Z,86.93
2018-09-10T22:24:59.109Z,86.59
2018-09-10T22:27:28.061Z,86.20
2018-09-10T22:29:57.075Z,86.71
2018-09-10T22:32:26.069Z,86.50
2018-09-10T22:34:56.023Z,86.72
2018-09-10T22:37:25.031Z,87.02
2018-09-10T22:39:54.029Z,86.92
2018-09-10T22:42:22.997Z,86.71
2018-09-10T22:44:52.913Z,86.94
2018-09-10T22:47:21.945Z,87.09
2018-09-10T22:49:51.044Z,86.86
2018-09-10T22:52:19.999Z,86.66
2018-09-10T22:54:49.969Z,86.94
2018-09-10T22:57:18.959Z,87.06
2018-09-10T22:59:48.972Z,87.41
2018-09-10T23:02:18.024Z,87.37
2018-09-10T23:04:47.953Z,87.90
2018-09-10T23:07:17.893Z,88.38
2018-09-10T23:09:47.097Z,87.71
2018-09-10T23:12:16.938Z,88.23
2018-09-10T23:14:46.354Z,88.37
2018-09-10T23:17:15.265Z,88.38
2018-09-10T23:19:44.653Z,88.47
2018-09-10T23:22:14.045Z,89.46
2018-09-10T23:24:43.772Z,88.72
2018-09-10T23:27:14.290Z,88.50
2018-09-10T23:29:43.667Z,88.54
2018-09-10T23:32:13.306Z,89.33
2018-09-10T23:34:42.291Z,89.65
2018-09-10T23:37:11.209Z,90.54
2018-09-10T23:39:41.906Z,90.11
2018-09-10T23:42:11.811Z,90.04
2018-09-10T23:44:40.757Z,90.10
2018-09-10T23:47:09.766Z,90.70
2018-09-10T23:49:38.731Z,90.32
2018-09-10T23:52:07.777Z,90.91
2018-09-10T23:54:36.697Z,90.93
2018-09-10T23:57:05.639Z,91.01
2018-09-10T23:59:34.606Z,90.78
